Time;durP1;ratioP1;P1;durP2;ratioP2;P2;SDS_P1;SDS_P2;PMS_P1;PMS_P2;Temp;Humidity;BMP_temperature;BMP_pressure;BME280_temperature;BME280_humidity;BME280_pressure;Samples;Min_cycle;Max_cycle;Signal;HPM_P1;HPM_P2
2022/06/27 00:02:16;;;;;;;5.85;3.42;;;20.20;62.40;;;;;;5077999;28;20058;-57
2022/06/27 00:04:44;;;;;;;3.63;2.85;;;20.20;62.50;;;;;;5082324;28;20059;-54
2022/06/27 00:07:12;;;;;;;7.60;3.17;;;20.20;62.50;;;;;;5083034;28;20066;-53
2022/06/27 00:09:40;;;;;;;6.00;3.30;;;20.20;62.50;;;;;;5080878;28;20048;-53
2022/06/27 00:12:10;;;;;;;4.95;3.47;;;20.20;62.50;;;;;;5078647;28;20549;-52
2022/06/27 00:14:37;;;;;;;5.45;3.50;;;20.20;62.70;;;;;;5082212;28;20044;-53
2022/06/27 00:17:05;;;;;;;10.40;4.57;;;20.20;62.70;;;;;;5083183;28;20056;-54
2022/06/27 00:19:33;;;;;;;8.55;3.92;;;20.20;62.70;;;;;;5080482;28;20055;-53
2022/06/27 00:22:00;;;;;;;5.68;4.38;;;20.20;62.70;;;;;;5080714;28;20051;-53
2022/06/27 00:24:28;;;;;;;6.35;4.43;;;20.10;62.80;;;;;;5081859;28;20393;-55
2022/06/27 00:26:55;;;;;;;5.38;3.78;;;20.10;62.90;;;;;;5082473;28;20076;-49
2022/06/27 00:29:24;;;;;;;4.70;3.70;;;20.10;63.00;;;;;;5078123;28;20763;-55
2022/06/27 00:31:51;;;;;;;4.80;3.63;;;20.10;63.20;;;;;;5080094;28;20052;-54
2022/06/27 00:34:19;;;;;;;8.07;4.75;;;20.10;63.20;;;;;;5082687;28;20048;-55
2022/06/27 00:36:46;;;;;;;10.88;4.18;;;20.10;63.30;;;;;;5082146;28;20408;-53
2022/06/27 00:39:13;;;;;;;7.00;4.38;;;20.00;63.30;;;;;;5080694;28;20056;-51
2022/06/27 00:41:41;;;;;;;7.03;4.32;;;20.10;63.30;;;;;;5080086;28;20071;-52
2022/06/27 00:44:09;;;;;;;5.25;4.00;;;20.00;63.40;;;;;;5080507;28;20056;-51
2022/06/27 00:46:38;;;;;;;5.13;3.50;;;20.00;63.50;;;;;;5081717;28;20052;-54
2022/06/27 00:49:05;;;;;;;5.45;3.80;;;20.00;63.60;;;;;;5079363;28;21406;-54
2022/06/27 00:51:33;;;;;;;7.38;4.72;;;20.00;63.70;;;;;;5080067;28;20138;-51
2022/06/27 00:54:03;;;;;;;5.40;4.15;;;19.90;63.70;;;;;;5081740;28;20051;-55
2022/06/27 00:56:31;;;;;;;5.82;4.15;;;19.90;63.90;;;;;;5082084;28;20052;-51
2022/06/27 00:58:58;;;;;;;8.20;5.60;;;19.90;63.90;;;;;;5079227;28;20052;-55
2022/06/27 01:01:25;;;;;;;6.22;4.63;;;19.90;64.10;;;;;;5075864;28;20078;-56
2022/06/27 01:04:00;;;;;;;6.68;5.03;;;19.90;64.10;;;;;;5079991;28;20039;-54
2022/06/27 01:06:28;;;;;;;10.13;6.82;;;19.90;64.20;;;;;;5083116;28;20051;-52
2022/06/27 01:08:56;;;;;;;13.57;6.40;;;19.90;64.10;;;;;;5077603;28;20510;-54
2022/06/27 01:11:24;;;;;;;9.60;4.95;;;19.90;64.10;;;;;;5078246;28;20059;-53
2022/06/27 01:13:51;;;;;;;14.13;5.95;;;19.90;64.20;;;;;;5080927;28;20055;-53
2022/06/27 01:16:19;;;;;;;9.23;5.55;;;19.80;64.30;;;;;;5079231;28;20043;-53
2022/06/27 01:18:46;;;;;;;9.88;5.20;;;19.70;64.50;;;;;;5081885;28;20059;-54
2022/06/27 01:21:23;;;;;;;15.55;5.00;;;19.70;64.70;;;;;;5076424;28;20079;-52
2022/06/27 01:23:53;;;;;;;7.72;5.75;;;19.60;65.10;;;;;;5079920;28;20142;-50
2022/06/27 01:26:22;;;;;;;6.25;5.47;;;19.60;65.10;;;;;;5082450;28;20056;-55
2022/06/27 01:28:50;;;;;;;7.70;6.30;;;19.60;65.40;;;;;;5078952;28;20059;-53
2022/06/27 01:31:18;;;;;;;10.00;7.57;;;19.60;65.70;;;;;;5076518;28;20056;-53
2022/06/27 01:33:45;;;;;;;9.45;6.85;;;19.50;65.80;;;;;;5080938;28;20055;-53
2022/06/27 01:38:59;;;;;;;8.60;6.25;;;19.40;66.30;;;;;;5075290;28;20055;-54
2022/06/27 01:41:27;;;;;;;9.20;6.80;;;19.40;66.50;;;;;;5079091;28;20052;-50
2022/06/27 01:43:55;;;;;;;14.65;8.18;;;19.50;66.70;;;;;;5077837;28;20518;-55
2022/06/27 01:46:22;;;;;;;9.98;6.15;;;19.40;66.70;;;;;;5080936;28;20052;-56
2022/06/27 01:48:49;;;;;;;8.63;6.20;;;19.40;66.70;;;;;;5078138;28;20047;-54
2022/06/27 01:51:18;;;;;;;9.98;7.72;;;19.50;66.80;;;;;;5078936;28;20094;-52
2022/06/27 01:53:46;;;;;;;14.25;7.90;;;19.50;66.70;;;;;;5080808;28;20404;-54
2022/06/27 01:56:15;;;;;;;14.38;8.65;;;19.50;66.60;;;;;;5080068;28;20063;-53
2022/06/27 01:58:42;;;;;;;9.68;6.85;;;19.50;66.50;;;;;;5078039;28;20059;-56
2022/06/27 02:01:09;;;;;;;9.77;7.45;;;19.50;66.40;;;;;;5074793;28;20074;-54
2022/06/27 02:03:37;;;;;;;13.70;8.75;;;19.50;66.30;;;;;;5081648;28;20169;-55
2022/06/27 02:06:05;;;;;;;9.82;7.40;;;19.50;66.30;;;;;;5077203;28;20392;-58
2022/06/27 02:08:33;;;;;;;8.73;6.75;;;19.50;66.20;;;;;;5077234;28;20534;-51
2022/06/27 02:11:01;;;;;;;15.38;7.70;;;19.60;66.30;;;;;;5078430;28;20059;-52
2022/06/27 02:13:30;;;;;;;9.55;6.65;;;19.60;66.30;;;;;;5079385;28;20048;-52
2022/06/27 02:16:06;;;;;;;7.28;6.05;;;19.60;66.30;;;;;;5079284;28;20491;-54
2022/06/27 02:18:34;;;;;;;11.05;7.70;;;19.60;66.30;;;;;;5078049;28;20522;-52
2022/06/27 02:21:02;;;;;;;12.02;7.40;;;19.60;66.20;;;;;;5078668;28;21809;-55
2022/06/27 02:23:29;;;;;;;9.80;5.97;;;19.60;66.20;;;;;;5080154;28;20060;-55
2022/06/27 02:25:58;;;;;;;11.93;7.07;;;19.60;66.10;;;;;;5080728;28;20407;-56
2022/06/27 02:28:28;;;;;;;8.23;6.40;;;19.70;66.10;;;;;;5077672;28;20534;-54
2022/06/27 02:30:57;;;;;;;8.32;6.22;;;19.60;66.10;;;;;;5075348;28;20063;-55
2022/06/27 02:33:25;;;;;;;9.93;6.50;;;19.70;66.10;;;;;;5081108;28;20048;-58
2022/06/27 02:35:55;;;;;;;10.45;6.65;;;19.70;66.10;;;;;;5079953;28;20048;-54
2022/06/27 02:38:23;;;;;;;8.68;6.10;;;19.70;66.20;;;;;;5078659;28;20059;-56
2022/06/27 02:40:51;;;;;;;10.13;6.25;;;19.70;66.20;;;;;;5074361;28;20052;-56
2022/06/27 02:43:20;;;;;;;7.47;6.05;;;19.80;66.30;;;;;;5071854;28;20063;-51
2022/06/27 02:45:48;;;;;;;9.15;6.68;;;19.80;66.40;;;;;;5081423;28;20055;-52
2022/06/27 02:48:19;;;;;;;8.98;6.70;;;19.80;66.30;;;;;;5081751;28;20056;-56
2022/06/27 02:50:49;;;;;;;10.13;6.22;;;19.80;66.30;;;;;;5080735;28;20165;-56
2022/06/27 02:53:24;;;;;;;7.47;5.60;;;19.90;66.40;;;;;;5083644;28;20056;-56
2022/06/27 02:55:55;;;;;;;9.13;6.03;;;19.80;66.30;;;;;;5081590;28;20055;-52
2022/06/27 02:58:33;;;;;;;5.65;4.65;;;19.90;66.40;;;;;;5081825;28;20059;-52
2022/06/27 03:01:03;;;;;;;7.78;4.43;;;19.90;66.40;;;;;;5079389;28;20055;-50
2022/06/27 03:03:35;;;;;;;7.47;5.40;;;19.90;66.20;;;;;;5082415;28;20052;-56
2022/06/27 03:06:04;;;;;;;9.93;4.97;;;19.90;66.20;;;;;;5060125;28;20059;-58
2022/06/27 03:08:39;;;;;;;9.43;5.38;;;19.90;66.00;;;;;;5059862;28;20064;-55
2022/06/27 03:11:06;;;;;;;8.40;5.53;;;20.00;66.20;;;;;;5062326;28;20048;-54
2022/06/27 03:13:34;;;;;;;7.18;4.93;;;20.00;66.10;;;;;;5058320;28;20044;-53
2022/06/27 03:16:02;;;;;;;7.53;4.53;;;20.00;66.00;;;;;;5060607;28;20048;-54
2022/06/27 03:18:31;;;;;;;6.95;5.32;;;20.00;65.90;;;;;;5063600;28;20055;-55
2022/06/27 03:20:59;;;;;;;8.82;5.25;;;20.00;65.80;;;;;;5059123;28;20420;-52
2022/06/27 03:23:27;;;;;;;8.55;5.68;;;20.00;65.80;;;;;;5059660;28;20060;-49
2022/06/27 03:25:55;;;;;;;7.75;6.30;;;20.00;65.80;;;;;;5060617;28;20048;-53
2022/06/27 03:28:22;;;;;;;9.10;6.05;;;20.00;66.50;;;;;;5060973;28;20063;-56
2022/06/27 03:30:51;;;;;;;6.88;5.78;;;20.00;65.80;;;;;;5058186;28;20617;-56
2022/06/27 03:33:19;;;;;;;7.22;5.90;;;20.00;65.70;;;;;;5045540;28;20061;-52
2022/06/27 03:35:48;;;;;;;13.95;7.07;;;20.00;66.40;;;;;;5061877;28;20044;-56
2022/06/27 03:38:15;;;;;;;8.80;6.63;;;20.00;65.70;;;;;;5059216;28;20052;-52
2022/06/27 03:40:43;;;;;;;9.13;7.20;;;20.00;65.70;;;;;;5057720;28;20056;-55
2022/06/27 03:43:10;;;;;;;11.88;7.90;;;20.00;65.70;;;;;;5060955;28;20063;-53
2022/06/27 03:45:38;;;;;;;9.57;7.45;;;20.00;65.60;;;;;;5060180;28;20049;-57
2022/06/27 03:48:06;;;;;;;9.70;7.38;;;20.00;65.60;;;;;;5058042;28;20059;-56
2022/06/27 03:50:34;;;;;;;10.73;8.05;;;20.00;65.50;;;;;;5050534;28;20075;-52
2022/06/27 03:53:03;;;;;;;11.13;7.93;;;20.00;65.50;;;;;;5058393;28;20063;-54
2022/06/27 03:55:33;;;;;;;11.43;7.85;;;20.00;65.50;;;;;;5056172;28;20059;-52
2022/06/27 03:58:00;;;;;;;9.00;7.18;;;20.00;65.50;;;;;;5061822;28;20523;-55
2022/06/27 04:00:31;;;;;;;12.40;8.25;;;20.00;65.50;;;;;;5059474;28;20064;-55
2022/06/27 04:03:00;;;;;;;9.63;7.93;;;20.00;65.50;;;;;;5063111;28;20060;-55
2022/06/27 04:05:27;;;;;;;14.48;8.23;;;20.00;65.50;;;;;;5063272;28;20040;-55
2022/06/27 04:07:55;;;;;;;9.50;7.15;;;20.00;65.60;;;;;;5061843;28;20052;-53
2022/06/27 04:10:23;;;;;;;12.60;8.50;;;20.00;65.60;;;;;;5060119;28;20055;-55
2022/06/27 04:12:51;;;;;;;14.05;9.13;;;20.00;65.70;;;;;;5060646;28;20059;-56
2022/06/27 04:15:18;;;;;;;14.63;9.77;;;20.00;65.70;;;;;;5057728;28;20056;-57
2022/06/27 04:17:46;;;;;;;12.02;7.95;;;19.90;65.80;;;;;;5050157;28;20512;-51
2022/06/27 04:20:13;;;;;;;18.67;9.63;;;20.00;65.90;;;;;;5057182;28;20421;-53
2022/06/27 04:22:41;;;;;;;16.38;9.63;;;20.00;66.00;;;;;;5059608;28;20052;-52
2022/06/27 04:25:09;;;;;;;15.30;11.30;;;19.90;66.00;;;;;;5058678;28;20060;-50
2022/06/27 04:27:39;;;;;;;13.70;9.82;;;20.00;66.10;;;;;;5060043;28;20060;-53
2022/06/27 04:30:09;;;;;;;11.05;8.60;;;20.00;66.20;;;;;;5056930;28;20480;-52
2022/06/27 04:32:36;;;;;;;11.60;8.82;;;19.90;66.20;;;;;;5057629;28;20053;-51
2022/06/27 04:35:04;;;;;;;15.57;11.00;;;20.00;66.30;;;;;;5062992;28;20481;-53
2022/06/27 04:37:32;;;;;;;16.17;11.23;;;20.00;66.40;;;;;;5058892;28;20563;-56
2022/06/27 04:39:59;;;;;;;13.80;9.13;;;20.00;66.30;;;;;;5060704;28;20048;-52
2022/06/27 04:42:27;;;;;;;10.90;8.80;;;19.90;66.30;;;;;;5060670;28;20052;-50
2022/06/27 04:44:57;;;;;;;13.00;8.40;;;19.90;66.40;;;;;;5059125;28;20048;-52
2022/06/27 04:47:24;;;;;;;15.18;9.82;;;19.90;66.60;;;;;;5057539;28;20048;-54
2022/06/27 04:49:52;;;;;;;10.30;8.27;;;19.90;66.70;;;;;;5058033;28;20052;-52
2022/06/27 04:52:20;;;;;;;15.73;9.15;;;19.90;66.80;;;;;;5055369;28;20052;-53
2022/06/27 04:54:48;;;;;;;13.70;9.82;;;19.90;66.80;;;;;;5057401;28;20056;-56
2022/06/27 04:57:15;;;;;;;12.90;8.18;;;19.90;66.90;;;;;;5056335;28;20056;-52
2022/06/27 04:59:43;;;;;;;13.57;9.05;;;19.90;66.80;;;;;;5059463;28;20048;-56
2022/06/27 05:02:12;;;;;;;12.10;8.93;;;20.00;66.80;;;;;;5057932;28;20045;-50
2022/06/27 05:04:39;;;;;;;12.05;8.85;;;20.00;66.70;;;;;;5058145;28;20052;-57
2022/06/27 05:07:07;;;;;;;12.55;10.02;;;20.00;66.70;;;;;;5057993;28;20049;-51
2022/06/27 05:09:34;;;;;;;12.48;9.05;;;20.00;66.70;;;;;;5059042;28;20060;-52
2022/06/27 05:12:02;;;;;;;10.27;7.72;;;20.10;66.80;;;;;;5054245;28;20058;-54
2022/06/27 05:14:29;;;;;;;14.40;8.32;;;20.10;66.80;;;;;;5047475;28;20064;-53
2022/06/27 05:16:57;;;;;;;9.48;6.97;;;20.10;66.80;;;;;;5058004;28;20055;-54
2022/06/27 05:19:25;;;;;;;9.75;7.75;;;20.10;66.80;;;;;;5059825;28;21503;-53
2022/06/27 05:21:53;;;;;;;11.55;8.13;;;20.10;66.80;;;;;;5058276;28;20067;-56
2022/06/27 05:24:20;;;;;;;10.18;8.10;;;20.20;66.80;;;;;;5058255;28;20786;-56
2022/06/27 05:26:48;;;;;;;11.18;8.27;;;20.20;66.80;;;;;;5058978;28;20055;-51
2022/06/27 05:29:15;;;;;;;11.32;8.43;;;20.30;67.00;;;;;;5054476;28;20053;-52
2022/06/27 05:31:43;;;;;;;10.85;8.07;;;20.20;67.00;;;;;;5051445;28;20510;-53
2022/06/27 05:34:10;;;;;;;11.68;7.97;;;20.30;67.20;;;;;;5054316;28;20415;-55
2022/06/27 05:36:39;;;;;;;12.30;9.10;;;20.30;67.30;;;;;;5061958;28;20048;-54
2022/06/27 05:39:07;;;;;;;12.70;9.73;;;20.40;67.40;;;;;;5061589;28;20059;-52
2022/06/27 05:41:36;;;;;;;13.35;10.40;;;20.40;68.00;;;;;;5058093;28;20056;-52
2022/06/27 05:44:04;;;;;;;13.10;9.63;;;20.40;67.00;;;;;;5059971;28;20052;-49
2022/06/27 05:46:32;;;;;;;11.60;8.70;;;20.50;66.90;;;;;;5060136;28;20059;-52
2022/06/27 05:49:01;;;;;;;11.93;9.57;;;20.50;66.90;;;;;;5055049;28;20508;-52
2022/06/27 05:51:29;;;;;;;11.25;8.52;;;20.60;66.90;;;;;;5057642;28;20052;-53
2022/06/27 05:53:58;;;;;;;12.85;10.55;;;20.60;66.70;;;;;;5056239;28;20598;-51
2022/06/27 05:56:27;;;;;;;12.55;9.88;;;20.70;66.60;;;;;;5056998;28;20115;-51
2022/06/27 05:58:55;;;;;;;14.90;9.73;;;20.70;66.40;;;;;;5057821;28;20379;-52
2022/06/27 06:01:23;;;;;;;12.80;9.15;;;20.70;66.30;;;;;;5051253;28;20051;-56
2022/06/27 06:03:50;;;;;;;11.73;9.82;;;20.80;66.30;;;;;;5060160;28;20056;-52
2022/06/27 06:06:18;;;;;;;16.52;11.68;;;20.80;66.00;;;;;;5060383;28;20053;-55
2022/06/27 06:08:45;;;;;;;14.05;10.75;;;20.90;65.70;;;;;;5058631;28;20060;-56
2022/06/27 06:11:15;;;;;;;18.08;12.57;;;20.90;65.30;;;;;;5056715;28;20052;-56
2022/06/27 06:13:43;;;;;;;14.10;10.07;;;20.90;64.10;;;;;;5058739;28;20057;-56
2022/06/27 06:16:11;;;;;;;18.40;11.52;;;21.00;64.50;;;;;;5062486;28;20056;-52
2022/06/27 06:18:39;;;;;;;11.18;9.98;;;21.00;64.70;;;;;;5060047;28;20052;-53
2022/06/27 06:21:07;;;;;;;13.15;9.50;;;21.10;65.00;;;;;;5060107;28;20060;-52
2022/06/27 06:23:36;;;;;;;13.70;9.15;;;21.10;65.10;;;;;;5061056;28;20052;-52
2022/06/27 06:26:05;;;;;;;13.77;10.65;;;21.20;65.10;;;;;;5063229;28;20055;-53
2022/06/27 06:28:35;;;;;;;14.65;10.60;;;21.20;64.40;;;;;;5062429;28;20064;-57
2022/06/27 06:31:03;;;;;;;13.88;10.43;;;21.30;64.00;;;;;;5061700;28;20059;-56
2022/06/27 06:33:31;;;;;;;12.90;9.07;;;21.30;63.90;;;;;;5063502;28;20060;-55
2022/06/27 06:35:58;;;;;;;15.20;11.50;;;21.40;64.70;;;;;;5063227;28;20048;-49
2022/06/27 06:38:26;;;;;;;13.30;9.25;;;21.40;63.70;;;;;;5063881;28;20909;-56
2022/06/27 06:40:54;;;;;;;11.90;9.60;;;21.40;63.40;;;;;;5060735;28;20052;-53
2022/06/27 06:43:21;;;;;;;13.05;9.77;;;21.50;63.00;;;;;;5060637;28;20056;-55
2022/06/27 06:45:51;;;;;;;13.48;9.68;;;21.50;63.10;;;;;;5064701;28;20497;-54
2022/06/27 06:48:19;;;;;;;10.20;8.45;;;21.60;63.50;;;;;;5063794;28;20048;-57
2022/06/27 06:50:46;;;;;;;12.25;8.80;;;21.60;63.20;;;;;;5058424;28;20061;-55
2022/06/27 06:53:14;;;;;;;11.45;7.78;;;21.60;63.00;;;;;;5063861;28;20064;-54
2022/06/27 06:55:42;;;;;;;11.93;9.30;;;21.70;62.70;;;;;;5063411;28;20492;-53
2022/06/27 06:58:10;;;;;;;12.38;9.25;;;21.70;61.80;;;;;;5060882;28;20507;-54
2022/06/27 07:00:39;;;;;;;14.20;10.38;;;21.80;61.80;;;;;;5060903;28;20048;-52
2022/06/27 07:03:09;;;;;;;14.82;11.13;;;21.80;61.80;;;;;;5063228;28;20115;-54
2022/06/27 07:05:37;;;;;;;14.82;8.52;;;21.80;61.10;;;;;;5057343;28;20420;-54
2022/06/27 07:08:07;;;;;;;11.55;9.57;;;21.80;61.60;;;;;;5060252;28;20045;-57
2022/06/27 07:10:34;;;;;;;15.15;10.70;;;21.80;62.10;;;;;;5057958;28;20389;-53
2022/06/27 07:13:03;;;;;;;13.18;10.60;;;21.90;62.20;;;;;;5059724;28;20052;-56
2022/06/27 07:15:33;;;;;;;17.63;12.48;;;21.90;62.60;;;;;;5059515;28;20056;-53
2022/06/27 07:18:02;;;;;;;16.15;12.48;;;21.90;61.10;;;;;;5061559;28;20052;-52
2022/06/27 07:20:31;;;;;;;17.00;10.90;;;21.90;59.70;;;;;;5062209;28;20052;-56
2022/06/27 07:23:00;;;;;;;13.38;10.73;;;21.90;59.90;;;;;;5059815;28;20056;-53
2022/06/27 07:25:27;;;;;;;14.27;11.90;;;21.90;59.90;;;;;;5060618;28;20056;-55
2022/06/27 07:27:55;;;;;;;14.02;10.52;;;21.90;59.10;;;;;;5062884;28;20052;-51
2022/06/27 07:30:23;;;;;;;14.18;11.05;;;21.80;58.90;;;;;;5059426;28;20057;-49
2022/06/27 07:32:50;;;;;;;13.57;10.10;;;21.80;58.60;;;;;;5063566;28;20060;-52
2022/06/27 07:35:18;;;;;;;12.15;10.02;;;21.80;59.10;;;;;;5059059;28;20056;-52
2022/06/27 07:37:49;;;;;;;15.90;10.77;;;21.80;59.90;;;;;;5057399;28;20512;-52
2022/06/27 07:40:18;;;;;;;13.38;8.70;;;21.70;60.00;;;;;;5060232;28;20063;-57
2022/06/27 07:42:45;;;;;;;14.98;11.98;;;21.80;59.90;;;;;;5058016;28;20515;-55
2022/06/27 07:45:14;;;;;;;17.17;11.48;;;21.80;59.10;;;;;;5060532;28;20056;-50
2022/06/27 07:47:42;;;;;;;15.63;10.93;;;21.80;58.50;;;;;;5061832;28;20048;-56
2022/06/27 07:50:11;;;;;;;16.58;10.55;;;21.70;58.20;;;;;;5062016;28;20052;-49
2022/06/27 07:55:23;;;;;;;18.77;12.63;;;21.70;58.30;;;;;;5061199;28;20055;-57
2022/06/27 07:57:52;;;;;;;14.10;10.73;;;21.70;58.40;;;;;;5061974;28;20057;-52
2022/06/27 08:00:19;;;;;;;14.68;10.52;;;21.70;58.70;;;;;;5060299;28;20056;-54
2022/06/27 08:02:47;;;;;;;11.40;8.48;;;21.70;59.00;;;;;;5056378;28;20052;-52
2022/06/27 08:05:14;;;;;;;11.57;9.07;;;21.80;59.10;;;;;;5057065;28;20052;-56
2022/06/27 08:07:42;;;;;;;13.25;10.98;;;21.80;59.00;;;;;;5055061;28;20520;-56
2022/06/27 08:10:10;;;;;;;17.05;11.18;;;21.90;59.00;;;;;;5059252;28;20048;-54
2022/06/27 08:12:39;;;;;;;11.75;9.27;;;21.90;58.80;;;;;;5059561;28;20048;-55
2022/06/27 08:15:09;;;;;;;15.63;9.73;;;21.90;58.80;;;;;;5058288;28;20056;-53
2022/06/27 08:17:36;;;;;;;15.15;9.88;;;21.90;58.80;;;;;;5057830;28;20045;-57
2022/06/27 08:20:04;;;;;;;11.05;8.40;;;21.90;58.90;;;;;;5061050;28;20403;-56
2022/06/27 08:22:33;;;;;;;12.65;8.73;;;21.90;59.00;;;;;;5056663;28;20060;-54
2022/06/27 08:25:01;;;;;;;14.63;10.02;;;21.90;59.20;;;;;;5058080;28;20416;-55
2022/06/27 08:27:29;;;;;;;14.57;11.70;;;22.00;59.10;;;;;;5059940;28;20500;-56
2022/06/27 08:29:57;;;;;;;15.65;12.18;;;22.00;59.10;;;;;;5054586;28;20060;-52
2022/06/27 08:32:25;;;;;;;17.40;13.63;;;22.00;59.20;;;;;;5056663;28;20432;-55
2022/06/27 08:34:55;;;;;;;23.15;15.13;;;22.00;59.10;;;;;;5060599;28;20044;-56
2022/06/27 08:37:24;;;;;;;23.67;18.20;;;22.10;59.10;;;;;;5058116;28;20065;-49
2022/06/27 08:39:52;;;;;;;22.95;16.80;;;22.10;59.10;;;;;;5061986;28;20393;-52
2022/06/27 08:42:21;;;;;;;23.05;15.40;;;22.10;59.20;;;;;;5059770;28;20416;-51
2022/06/27 08:44:48;;;;;;;21.35;15.30;;;22.20;59.20;;;;;;5059827;28;20052;-57
2022/06/27 08:47:19;;;;;;;17.85;11.93;;;22.20;59.20;;;;;;5059349;28;20127;-52
2022/06/27 08:49:51;;;;;;;16.80;11.55;;;22.20;59.20;;;;;;5056145;28;20063;-54
2022/06/27 08:52:20;;;;;;;20.38;15.18;;;22.20;59.20;;;;;;5056182;28;20056;-55
2022/06/27 08:54:51;;;;;;;32.13;19.13;;;22.20;59.30;;;;;;5060295;28;20044;-54
2022/06/27 08:57:19;;;;;;;24.52;16.63;;;22.30;59.10;;;;;;5058954;28;20052;-50
2022/06/27 08:59:48;;;;;;;25.83;19.25;;;22.20;59.00;;;;;;5060045;28;20052;-51
2022/06/27 09:02:19;;;;;;;23.88;18.27;;;22.20;58.70;;;;;;5050225;28;20055;-53
2022/06/27 09:04:58;;;;;;;24.88;18.13;;;22.20;58.50;;;;;;5056659;28;20435;-53
2022/06/27 09:07:48;;;;;;;21.00;15.63;;;22.20;58.60;;;;;;5058739;28;20056;-54
2022/06/27 09:10:29;;;;;;;27.02;18.40;;;22.10;58.70;;;;;;5058774;28;20571;-49
2022/06/27 09:13:00;;;;;;;21.15;14.32;;;22.10;58.20;;;;;;5059644;28;20060;-56
2022/06/27 09:15:44;;;;;;;15.27;12.45;;;22.10;58.50;;;;;;5058388;28;20052;-58
2022/06/27 09:18:15;;;;;;;17.83;13.55;;;22.10;58.50;;;;;;5059773;28;20500;-56
2022/06/27 09:20:54;;;;;;;15.10;11.40;;;22.10;58.60;;;;;;5057249;28;20518;-56
2022/06/27 09:23:35;;;;;;;17.63;13.10;;;22.10;58.70;;;;;;5061083;28;20053;-53
2022/06/27 09:26:09;;;;;;;18.30;11.82;;;22.00;58.60;;;;;;5059902;28;20052;-53
2022/06/27 09:28:40;;;;;;;15.77;11.38;;;22.00;58.60;;;;;;5057445;28;20075;-53
2022/06/27 09:31:10;;;;;;;15.30;10.63;;;22.00;58.60;;;;;;5055500;28;20056;-58
2022/06/27 09:33:41;;;;;;;12.43;9.60;;;22.00;58.90;;;;;;5061232;28;20051;-58
2022/06/27 09:36:15;;;;;;;15.10;9.98;;;22.00;58.90;;;;;;5060776;28;20052;-54
2022/06/27 09:38:45;;;;;;;18.15;11.43;;;22.00;59.30;;;;;;5061124;28;20053;-53
2022/06/27 09:41:14;;;;;;;12.90;9.20;;;22.00;59.30;;;;;;5055819;28;20044;-54
2022/06/27 09:43:46;;;;;;;17.10;11.60;;;22.00;59.30;;;;;;5058576;28;20496;-56
2022/06/27 09:46:19;;;;;;;21.23;13.63;;;22.00;59.10;;;;;;5056275;28;20063;-53
2022/06/27 09:48:48;;;;;;;21.02;13.88;;;22.00;58.90;;;;;;5056443;28;20501;-53
2022/06/27 09:51:18;;;;;;;23.40;15.30;;;22.00;58.50;;;;;;5056167;28;20051;-52
2022/06/27 09:53:47;;;;;;;19.38;13.18;;;21.90;58.60;;;;;;5061104;28;20056;-54
2022/06/27 09:56:17;;;;;;;17.92;13.07;;;21.90;58.80;;;;;;5059285;28;20059;-54
2022/06/27 09:58:45;;;;;;;19.80;13.73;;;21.90;59.40;;;;;;5058522;28;20056;-53
2022/06/27 10:01:13;;;;;;;26.45;13.77;;;21.90;59.50;;;;;;5054986;28;20489;-52
2022/06/27 10:03:41;;;;;;;22.73;15.23;;;21.90;59.60;;;;;;5056870;28;20060;-52
2022/06/27 10:06:11;;;;;;;19.30;14.55;;;21.90;59.70;;;;;;5059875;28;20411;-53
2022/06/27 10:08:48;;;;;;;21.67;15.32;;;21.90;59.70;;;;;;5060831;28;20487;-55
2022/06/27 10:11:16;;;;;;;21.38;14.55;;;21.90;59.80;;;;;;5053451;28;20064;-53
2022/06/27 10:13:44;;;;;;;19.98;13.65;;;21.90;59.90;;;;;;5058322;28;20048;-55
2022/06/27 10:16:13;;;;;;;22.30;16.65;;;22.00;59.90;;;;;;5059361;28;20048;-54
2022/06/27 10:19:03;;;;;;;18.13;12.98;;;22.00;60.00;;;;;;5058696;28;20045;-54
2022/06/27 10:21:34;;;;;;;17.92;12.45;;;22.10;59.80;;;;;;5057237;28;20526;-54
2022/06/27 10:24:33;;;;;;;23.70;14.43;;;22.20;59.70;;;;;;5060529;28;20049;-55
2022/06/27 10:27:08;;;;;;;15.35;12.73;;;22.20;59.70;;;;;;5059619;28;20056;-52
2022/06/27 10:29:45;;;;;;;25.27;13.95;;;22.30;59.30;;;;;;5054203;28;20037;-55
2022/06/27 10:32:46;;;;;;;14.70;12.63;;;22.40;59.20;;;;;;5055025;28;20049;-56
2022/06/27 10:35:16;;;;;;;29.45;20.05;;;22.50;58.80;;;;;;5057440;28;20056;-52
2022/06/27 10:37:46;;;;;;;28.02;19.75;;;22.50;58.70;;;;;;5057004;28;20056;-49
2022/06/27 10:40:50;;;;;;;21.20;16.15;;;22.50;58.40;;;;;;5060577;28;20052;-53
2022/06/27 10:43:48;;;;;;;24.92;15.98;;;22.60;58.40;;;;;;5056776;28;20063;-54
2022/06/27 10:46:42;;;;;;;18.88;15.10;;;22.60;58.60;;;;;;4978369;28;20050;-53
2022/06/27 10:49:25;;;;;;;18.38;15.23;;;22.70;58.50;;;;;;5052510;28;20056;-54
2022/06/27 10:51:54;;;;;;;21.15;15.65;;;22.70;58.40;;;;;;5054491;28;20060;-53
2022/06/27 10:54:23;;;;;;;30.30;20.80;;;22.80;58.20;;;;;;5057389;28;20503;-54
2022/06/27 10:56:52;;;;;;;20.10;15.65;;;22.90;57.70;;;;;;5058733;28;20063;-52
2022/06/27 11:00:00;;;;;;;20.88;15.52;;;22.90;57.80;;;;;;5058407;28;20448;-50
2022/06/27 11:02:30;;;;;;;21.10;15.98;;;22.90;57.80;;;;;;5056592;28;20079;-53
2022/06/27 11:04:58;;;;;;;20.00;14.77;;;23.10;57.80;;;;;;5059885;28;20056;-56
2022/06/27 11:07:26;;;;;;;20.23;14.82;;;23.10;57.70;;;;;;5060671;28;20057;-54
2022/06/27 11:09:56;;;;;;;23.77;18.20;;;23.20;57.50;;;;;;5062856;28;21534;-54
2022/06/27 11:12:30;;;;;;;28.42;20.92;;;23.20;57.30;;;;;;5063641;28;20461;-55
2022/06/27 11:14:59;;;;;;;19.67;16.33;;;23.40;56.30;;;;;;5062972;28;20048;-56
2022/06/27 11:17:48;;;;;;;20.35;15.27;;;23.40;56.80;;;;;;5064629;28;20048;-53
2022/06/27 11:20:21;;;;;;;18.15;13.30;;;23.50;56.20;;;;;;5063818;28;20052;-50
2022/06/27 11:22:52;;;;;;;23.40;16.08;;;23.60;56.20;;;;;;5064618;28;20059;-52
2022/06/27 11:25:22;;;;;;;23.27;15.65;;;23.60;56.00;;;;;;5063029;28;20053;-53
2022/06/27 11:27:52;;;;;;;17.73;14.05;;;23.70;56.00;;;;;;5062710;28;20060;-57
2022/06/27 11:33:34;;;;;;;17.13;14.20;;;23.80;55.50;;;;;;5000081;28;20044;-52
2022/06/27 11:36:03;;;;;;;21.00;13.73;;;23.80;54.80;;;;;;5064460;28;20107;-51
2022/06/27 11:38:33;;;;;;;25.27;17.35;;;23.80;55.00;;;;;;5064699;28;20063;-54
2022/06/27 11:41:04;;;;;;;20.05;15.30;;;23.80;54.80;;;;;;5063620;28;20515;-54
2022/06/27 11:43:52;;;;;;;24.02;19.67;;;23.80;54.40;;;;;;5063167;28;20072;-53
2022/06/27 11:46:27;;;;;;;23.38;19.15;;;23.70;54.30;;;;;;5064044;28;20435;-51
2022/06/27 11:48:57;;;;;;;27.58;20.20;;;23.70;53.50;;;;;;5063940;28;20064;-51
2022/06/27 11:51:27;;;;;;;28.02;20.02;;;23.70;53.30;;;;;;5062471;28;20431;-55
2022/06/27 11:53:57;;;;;;;27.38;19.63;;;23.60;53.60;;;;;;5059841;28;20083;-53
2022/06/27 11:56:28;;;;;;;24.08;16.77;;;23.60;53.60;;;;;;5061389;28;20408;-53
2022/06/27 11:58:56;;;;;;;22.95;16.58;;;23.60;54.00;;;;;;5060896;28;20450;-52
2022/06/27 12:01:24;;;;;;;18.63;14.25;;;23.60;54.00;;;;;;5063076;28;20060;-55
2022/06/27 12:04:11;;;;;;;25.63;17.45;;;23.60;54.50;;;;;;5063246;28;20059;-49
2022/06/27 12:06:47;;;;;;;23.25;16.10;;;23.60;54.00;;;;;;5064275;28;20503;-51
2022/06/27 12:09:15;;;;;;;18.55;14.60;;;23.60;54.30;;;;;;5060761;28;20056;-56
2022/06/27 12:12:01;;;;;;;20.35;13.73;;;23.60;54.40;;;;;;5062597;28;20055;-54
2022/06/27 12:14:31;;;;;;;21.67;15.95;;;23.60;54.20;;;;;;5061983;28;20079;-56
2022/06/27 12:17:00;;;;;;;24.10;17.35;;;23.70;53.70;;;;;;5063213;28;20064;-58
2022/06/27 12:19:29;;;;;;;20.23;14.60;;;23.70;53.20;;;;;;5063407;28;20048;-52
2022/06/27 12:21:57;;;;;;;20.85;13.35;;;23.70;53.50;;;;;;5061823;28;20060;-54
2022/06/27 12:24:25;;;;;;;17.42;12.80;;;23.70;53.70;;;;;;5061912;28;20052;-52
2022/06/27 12:26:52;;;;;;;17.90;13.98;;;23.70;53.80;;;;;;5063088;28;20052;-52
2022/06/27 12:29:21;;;;;;;12.77;10.15;;;23.70;53.70;;;;;;5060822;28;20528;-52
2022/06/27 12:31:49;;;;;;;22.90;13.75;;;23.80;53.80;;;;;;5061514;28;20052;-54
2022/06/27 12:34:16;;;;;;;20.88;14.70;;;23.80;54.00;;;;;;5063166;28;20075;-53
2022/06/27 12:36:45;;;;;;;21.13;13.73;;;23.80;53.10;;;;;;5063363;28;20045;-51
2022/06/27 12:39:12;;;;;;;25.40;15.25;;;23.80;53.40;;;;;;5062525;28;20052;-54
2022/06/27 12:41:39;;;;;;;20.88;15.65;;;23.80;53.20;;;;;;5062156;28;20061;-55
2022/06/27 12:44:07;;;;;;;16.27;12.18;;;23.80;52.90;;;;;;5061943;28;20052;-54
2022/06/27 12:46:36;;;;;;;26.38;16.08;;;23.80;53.80;;;;;;5062602;28;20197;-54
2022/06/27 12:49:04;;;;;;;21.00;14.77;;;23.80;53.20;;;;;;5061276;28;20052;-58
2022/06/27 12:51:31;;;;;;;18.65;12.27;;;23.80;53.90;;;;;;5060156;28;20083;-58
2022/06/27 12:54:00;;;;;;;16.95;12.55;;;23.80;54.00;;;;;;5062292;28;20400;-51
2022/06/27 12:56:28;;;;;;;21.48;14.35;;;23.80;54.20;;;;;;5063064;28;20064;-51
2022/06/27 12:58:55;;;;;;;19.65;13.93;;;23.90;53.80;;;;;;5060476;28;20419;-50